X  Fechar Dados meteorológicos de METAR da aviação     K49A Gilmer County Airport
Temperatura
61°F Temperatura
59°F Ponto de orvalho
94% Umidade



Vento
5 MPH
8 KM/H
2 M/S
4 NÓS



30°
NNL
Condições atuais

Limpo Limpo
Pressão 1014.52 (hPa) - 29.96 (inHg)
Visibilidade 10 (milha) - 16.1 (km)
Aeroporto
Código do aeroporto K49A

Localização: Gilmer County Airport
Distância: 17 (mi)

Metar:
K49A 240215Z AUTO 03004KT 10SM CLR 16/15 A2996 RMK AO2

Hora: 09-23-2023 22:15 EDT